sensor_id;sensor_type;location;lat;lon;timestamp;P1;durP1;ratioP1;P2;durP2;ratioP2
8219;SDS011;4151;51.110;7.020;2023-12-14T00:00:28;28.27;;;14.00;;
8219;SDS011;4151;51.110;7.020;2023-12-14T00:02:55;29.57;;;12.37;;
8219;SDS011;4151;51.110;7.020;2023-12-14T00:05:21;26.50;;;13.20;;
8219;SDS011;4151;51.110;7.020;2023-12-14T00:07:47;23.17;;;12.03;;
8219;SDS011;4151;51.110;7.020;2023-12-14T00:10:13;27.63;;;13.40;;
8219;SDS011;4151;51.110;7.020;2023-12-14T00:12:39;30.40;;;14.50;;
8219;SDS011;4151;51.110;7.020;2023-12-14T00:15:05;37.67;;;14.43;;
8219;SDS011;4151;51.110;7.020;2023-12-14T00:17:32;28.40;;;11.43;;
8219;SDS011;4151;51.110;7.020;2023-12-14T00:19:58;24.60;;;11.33;;
8219;SDS011;4151;51.110;7.020;2023-12-14T00:22:24;32.00;;;13.63;;
8219;SDS011;4151;51.110;7.020;2023-12-14T00:24:49;32.70;;;14.33;;
8219;SDS011;4151;51.110;7.020;2023-12-14T00:27:15;26.47;;;12.40;;
8219;SDS011;4151;51.110;7.020;2023-12-14T00:29:41;34.13;;;13.60;;
8219;SDS011;4151;51.110;7.020;2023-12-14T00:32:07;27.93;;;14.00;;
8219;SDS011;4151;51.110;7.020;2023-12-14T00:34:33;37.47;;;13.67;;
8219;SDS011;4151;51.110;7.020;2023-12-14T00:37:00;31.83;;;13.60;;
8219;SDS011;4151;51.110;7.020;2023-12-14T00:39:26;28.77;;;13.87;;
8219;SDS011;4151;51.110;7.020;2023-12-14T00:41:53;38.70;;;15.00;;
8219;SDS011;4151;51.110;7.020;2023-12-14T00:44:19;30.40;;;14.20;;
8219;SDS011;4151;51.110;7.020;2023-12-14T00:46:45;31.50;;;14.00;;
8219;SDS011;4151;51.110;7.020;2023-12-14T00:49:11;36.13;;;15.00;;
8219;SDS011;4151;51.110;7.020;2023-12-14T00:51:37;34.37;;;15.23;;
8219;SDS011;4151;51.110;7.020;2023-12-14T00:54:03;31.77;;;13.37;;
8219;SDS011;4151;51.110;7.020;2023-12-14T00:56:29;43.30;;;14.00;;
8219;SDS011;4151;51.110;7.020;2023-12-14T00:58:55;35.50;;;13.93;;
8219;SDS011;4151;51.110;7.020;2023-12-14T01:01:20;30.73;;;14.60;;
8219;SDS011;4151;51.110;7.020;2023-12-14T01:03:46;31.00;;;14.03;;
8219;SDS011;4151;51.110;7.020;2023-12-14T01:06:12;33.07;;;15.20;;
8219;SDS011;4151;51.110;7.020;2023-12-14T01:08:38;42.70;;;16.03;;
8219;SDS011;4151;51.110;7.020;2023-12-14T01:11:04;43.57;;;14.43;;
8219;SDS011;4151;51.110;7.020;2023-12-14T01:13:30;45.13;;;15.03;;
8219;SDS011;4151;51.110;7.020;2023-12-14T01:15:56;34.87;;;14.93;;
8219;SDS011;4151;51.110;7.020;2023-12-14T01:18:22;33.00;;;14.43;;
8219;SDS011;4151;51.110;7.020;2023-12-14T01:20:49;42.17;;;15.90;;
8219;SDS011;4151;51.110;7.020;2023-12-14T01:23:15;40.23;;;16.70;;
8219;SDS011;4151;51.110;7.020;2023-12-14T01:25:41;42.73;;;14.43;;
8219;SDS011;4151;51.110;7.020;2023-12-14T01:28:07;49.07;;;17.47;;
8219;SDS011;4151;51.110;7.020;2023-12-14T01:30:33;47.87;;;16.27;;
8219;SDS011;4151;51.110;7.020;2023-12-14T01:32:59;42.10;;;18.67;;
8219;SDS011;4151;51.110;7.020;2023-12-14T01:35:25;41.30;;;16.97;;
8219;SDS011;4151;51.110;7.020;2023-12-14T01:37:53;54.70;;;18.77;;
8219;SDS011;4151;51.110;7.020;2023-12-14T01:40:19;50.50;;;16.20;;
8219;SDS011;4151;51.110;7.020;2023-12-14T01:42:45;45.70;;;17.43;;
8219;SDS011;4151;51.110;7.020;2023-12-14T01:45:11;47.60;;;17.23;;
8219;SDS011;4151;51.110;7.020;2023-12-14T01:47:40;48.73;;;16.90;;
8219;SDS011;4151;51.110;7.020;2023-12-14T01:50:06;41.93;;;16.67;;
8219;SDS011;4151;51.110;7.020;2023-12-14T01:52:32;56.70;;;17.90;;
8219;SDS011;4151;51.110;7.020;2023-12-14T01:54:58;55.60;;;19.20;;
8219;SDS011;4151;51.110;7.020;2023-12-14T01:57:24;57.20;;;19.60;;
8219;SDS011;4151;51.110;7.020;2023-12-14T01:59:50;74.77;;;19.03;;
8219;SDS011;4151;51.110;7.020;2023-12-14T02:02:16;60.87;;;17.60;;
8219;SDS011;4151;51.110;7.020;2023-12-14T02:04:42;79.40;;;19.30;;
8219;SDS011;4151;51.110;7.020;2023-12-14T02:07:09;59.43;;;17.60;;
8219;SDS011;4151;51.110;7.020;2023-12-14T02:09:35;56.30;;;17.43;;
8219;SDS011;4151;51.110;7.020;2023-12-14T02:12:01;63.97;;;19.93;;
8219;SDS011;4151;51.110;7.020;2023-12-14T02:14:26;59.93;;;18.00;;
8219;SDS011;4151;51.110;7.020;2023-12-14T02:16:52;65.33;;;18.63;;
8219;SDS011;4151;51.110;7.020;2023-12-14T02:19:18;47.87;;;17.10;;
8219;SDS011;4151;51.110;7.020;2023-12-14T02:21:44;52.50;;;16.97;;
8219;SDS011;4151;51.110;7.020;2023-12-14T02:24:10;53.17;;;16.33;;
8219;SDS011;4151;51.110;7.020;2023-12-14T02:26:36;44.73;;;14.80;;
8219;SDS011;4151;51.110;7.020;2023-12-14T02:29:02;46.87;;;15.50;;
8219;SDS011;4151;51.110;7.020;2023-12-14T02:31:28;49.57;;;17.20;;
8219;SDS011;4151;51.110;7.020;2023-12-14T02:33:54;44.10;;;16.23;;
8219;SDS011;4151;51.110;7.020;2023-12-14T02:36:20;55.27;;;18.20;;
8219;SDS011;4151;51.110;7.020;2023-12-14T02:38:46;46.37;;;15.87;;
8219;SDS011;4151;51.110;7.020;2023-12-14T02:41:12;47.13;;;18.07;;
8219;SDS011;4151;51.110;7.020;2023-12-14T02:43:38;42.23;;;16.00;;
8219;SDS011;4151;51.110;7.020;2023-12-14T02:46:05;51.77;;;17.53;;
8219;SDS011;4151;51.110;7.020;2023-12-14T02:48:31;60.80;;;19.10;;
8219;SDS011;4151;51.110;7.020;2023-12-14T02:50:57;54.57;;;16.77;;
8219;SDS011;4151;51.110;7.020;2023-12-14T02:53:25;58.27;;;16.60;;
8219;SDS011;4151;51.110;7.020;2023-12-14T02:55:51;47.60;;;15.97;;
8219;SDS011;4151;51.110;7.020;2023-12-14T02:58:18;59.80;;;17.47;;
8219;SDS011;4151;51.110;7.020;2023-12-14T03:00:44;61.83;;;16.47;;
8219;SDS011;4151;51.110;7.020;2023-12-14T03:03:10;53.20;;;15.60;;
8219;SDS011;4151;51.110;7.020;2023-12-14T03:05:36;50.43;;;18.80;;
8219;SDS011;4151;51.110;7.020;2023-12-14T03:08:02;47.23;;;15.40;;
8219;SDS011;4151;51.110;7.020;2023-12-14T03:10:28;58.93;;;16.43;;
8219;SDS011;4151;51.110;7.020;2023-12-14T03:12:54;46.20;;;15.70;;
8219;SDS011;4151;51.110;7.020;2023-12-14T03:15:20;43.37;;;13.57;;
8219;SDS011;4151;51.110;7.020;2023-12-14T03:17:47;44.80;;;15.10;;
8219;SDS011;4151;51.110;7.020;2023-12-14T03:20:13;41.63;;;15.13;;
8219;SDS011;4151;51.110;7.020;2023-12-14T03:22:39;40.40;;;13.90;;
8219;SDS011;4151;51.110;7.020;2023-12-14T03:25:05;36.40;;;13.10;;
8219;SDS011;4151;51.110;7.020;2023-12-14T03:27:31;32.07;;;10.90;;
8219;SDS011;4151;51.110;7.020;2023-12-14T03:29:57;31.00;;;10.67;;
8219;SDS011;4151;51.110;7.020;2023-12-14T03:32:23;43.27;;;11.10;;
8219;SDS011;4151;51.110;7.020;2023-12-14T03:34:49;27.00;;;9.50;;
8219;SDS011;4151;51.110;7.020;2023-12-14T03:37:15;20.93;;;8.53;;
8219;SDS011;4151;51.110;7.020;2023-12-14T03:39:41;21.07;;;8.13;;
8219;SDS011;4151;51.110;7.020;2023-12-14T03:42:07;19.93;;;7.77;;
8219;SDS011;4151;51.110;7.020;2023-12-14T03:44:33;15.80;;;7.43;;
8219;SDS011;4151;51.110;7.020;2023-12-14T03:46:59;17.10;;;8.20;;
8219;SDS011;4151;51.110;7.020;2023-12-14T03:49:25;12.30;;;6.43;;
8219;SDS011;4151;51.110;7.020;2023-12-14T03:51:51;16.23;;;7.43;;
8219;SDS011;4151;51.110;7.020;2023-12-14T03:54:17;18.90;;;7.70;;
8219;SDS011;4151;51.110;7.020;2023-12-14T03:56:43;24.67;;;9.03;;
8219;SDS011;4151;51.110;7.020;2023-12-14T03:59:09;16.60;;;8.90;;
8219;SDS011;4151;51.110;7.020;2023-12-14T04:01:35;17.43;;;7.60;;
8219;SDS011;4151;51.110;7.020;2023-12-14T04:04:04;23.60;;;9.93;;
8219;SDS011;4151;51.110;7.020;2023-12-14T04:06:30;28.97;;;11.20;;
8219;SDS011;4151;51.110;7.020;2023-12-14T04:08:56;25.97;;;11.13;;
8219;SDS011;4151;51.110;7.020;2023-12-14T04:11:22;27.93;;;11.20;;
8219;SDS011;4151;51.110;7.020;2023-12-14T04:13:49;29.73;;;11.80;;
8219;SDS011;4151;51.110;7.020;2023-12-14T04:16:22;26.40;;;11.63;;
8219;SDS011;4151;51.110;7.020;2023-12-14T04:18:48;27.73;;;12.00;;
8219;SDS011;4151;51.110;7.020;2023-12-14T04:21:14;38.43;;;12.73;;
8219;SDS011;4151;51.110;7.020;2023-12-14T04:23:40;41.33;;;14.50;;
8219;SDS011;4151;51.110;7.020;2023-12-14T04:26:06;39.53;;;13.50;;
8219;SDS011;4151;51.110;7.020;2023-12-14T04:28:34;38.27;;;16.23;;
8219;SDS011;4151;51.110;7.020;2023-12-14T04:31:00;40.10;;;15.87;;
8219;SDS011;4151;51.110;7.020;2023-12-14T04:33:26;86.87;;;31.50;;
8219;SDS011;4151;51.110;7.020;2023-12-14T04:35:52;59.03;;;21.87;;
8219;SDS011;4151;51.110;7.020;2023-12-14T04:38:18;66.77;;;18.60;;
8219;SDS011;4151;51.110;7.020;2023-12-14T04:40:44;59.00;;;19.13;;
8219;SDS011;4151;51.110;7.020;2023-12-14T04:43:10;63.57;;;18.57;;
8219;SDS011;4151;51.110;7.020;2023-12-14T04:45:36;52.37;;;19.20;;
8219;SDS011;4151;51.110;7.020;2023-12-14T04:48:02;59.83;;;21.17;;
8219;SDS011;4151;51.110;7.020;2023-12-14T04:50:28;61.17;;;20.03;;
8219;SDS011;4151;51.110;7.020;2023-12-14T04:52:54;63.17;;;20.23;;
8219;SDS011;4151;51.110;7.020;2023-12-14T04:55:20;55.60;;;20.70;;
8219;SDS011;4151;51.110;7.020;2023-12-14T04:57:46;55.83;;;20.60;;
8219;SDS011;4151;51.110;7.020;2023-12-14T05:00:14;55.83;;;19.43;;
8219;SDS011;4151;51.110;7.020;2023-12-14T05:02:40;65.43;;;20.80;;
8219;SDS011;4151;51.110;7.020;2023-12-14T05:05:06;65.37;;;19.90;;
8219;SDS011;4151;51.110;7.020;2023-12-14T05:07:32;61.17;;;20.53;;
8219;SDS011;4151;51.110;7.020;2023-12-14T05:09:58;61.90;;;19.50;;
8219;SDS011;4151;51.110;7.020;2023-12-14T05:12:24;61.33;;;19.50;;
8219;SDS011;4151;51.110;7.020;2023-12-14T05:14:52;58.37;;;19.97;;
8219;SDS011;4151;51.110;7.020;2023-12-14T05:17:18;73.20;;;21.57;;
8219;SDS011;4151;51.110;7.020;2023-12-14T05:19:44;57.27;;;19.23;;
8219;SDS011;4151;51.110;7.020;2023-12-14T05:22:11;57.73;;;18.00;;
8219;SDS011;4151;51.110;7.020;2023-12-14T05:24:37;77.50;;;19.60;;
8219;SDS011;4151;51.110;7.020;2023-12-14T05:27:03;65.87;;;19.70;;
8219;SDS011;4151;51.110;7.020;2023-12-14T05:29:29;62.33;;;20.73;;
8219;SDS011;4151;51.110;7.020;2023-12-14T05:31:56;61.20;;;20.13;;
8219;SDS011;4151;51.110;7.020;2023-12-14T05:34:22;57.40;;;18.67;;
8219;SDS011;4151;51.110;7.020;2023-12-14T05:36:48;70.37;;;20.57;;
8219;SDS011;4151;51.110;7.020;2023-12-14T05:39:14;64.73;;;22.07;;
8219;SDS011;4151;51.110;7.020;2023-12-14T05:41:40;63.97;;;21.90;;
8219;SDS011;4151;51.110;7.020;2023-12-14T05:44:06;92.90;;;30.30;;
8219;SDS011;4151;51.110;7.020;2023-12-14T05:46:32;63.10;;;19.03;;
8219;SDS011;4151;51.110;7.020;2023-12-14T05:48:58;60.20;;;19.63;;
8219;SDS011;4151;51.110;7.020;2023-12-14T05:51:28;71.73;;;22.23;;
8219;SDS011;4151;51.110;7.020;2023-12-14T05:53:54;61.80;;;21.10;;
8219;SDS011;4151;51.110;7.020;2023-12-14T05:56:20;69.20;;;22.43;;
8219;SDS011;4151;51.110;7.020;2023-12-14T05:58:46;70.23;;;23.50;;
8219;SDS011;4151;51.110;7.020;2023-12-14T06:01:13;64.20;;;18.63;;
8219;SDS011;4151;51.110;7.020;2023-12-14T06:03:39;72.03;;;21.00;;
8219;SDS011;4151;51.110;7.020;2023-12-14T06:06:05;64.00;;;20.70;;
8219;SDS011;4151;51.110;7.020;2023-12-14T06:08:31;48.97;;;18.50;;
8219;SDS011;4151;51.110;7.020;2023-12-14T06:10:57;51.10;;;18.60;;
8219;SDS011;4151;51.110;7.020;2023-12-14T06:13:23;48.50;;;18.73;;
8219;SDS011;4151;51.110;7.020;2023-12-14T06:15:49;54.30;;;17.50;;
8219;SDS011;4151;51.110;7.020;2023-12-14T06:18:16;51.07;;;17.47;;
8219;SDS011;4151;51.110;7.020;2023-12-14T06:20:42;60.40;;;18.20;;
8219;SDS011;4151;51.110;7.020;2023-12-14T06:23:08;48.07;;;17.50;;
8219;SDS011;4151;51.110;7.020;2023-12-14T06:25:34;49.00;;;17.80;;
8219;SDS011;4151;51.110;7.020;2023-12-14T06:28:00;43.13;;;14.60;;
8219;SDS011;4151;51.110;7.020;2023-12-14T06:30:26;44.60;;;15.63;;
8219;SDS011;4151;51.110;7.020;2023-12-14T06:32:52;49.23;;;14.50;;
8219;SDS011;4151;51.110;7.020;2023-12-14T06:35:18;46.87;;;15.63;;
8219;SDS011;4151;51.110;7.020;2023-12-14T06:37:44;45.23;;;14.90;;
8219;SDS011;4151;51.110;7.020;2023-12-14T06:40:10;41.90;;;15.10;;
8219;SDS011;4151;51.110;7.020;2023-12-14T06:42:36;33.83;;;14.57;;
8219;SDS011;4151;51.110;7.020;2023-12-14T06:45:02;36.73;;;13.13;;
8219;SDS011;4151;51.110;7.020;2023-12-14T06:47:28;39.90;;;15.10;;
8219;SDS011;4151;51.110;7.020;2023-12-14T06:49:54;37.23;;;13.93;;
8219;SDS011;4151;51.110;7.020;2023-12-14T06:52:22;41.43;;;16.13;;
8219;SDS011;4151;51.110;7.020;2023-12-14T06:54:48;40.77;;;16.17;;
8219;SDS011;4151;51.110;7.020;2023-12-14T06:57:14;60.37;;;17.47;;
8219;SDS011;4151;51.110;7.020;2023-12-14T06:59:40;39.60;;;15.90;;
8219;SDS011;4151;51.110;7.020;2023-12-14T07:02:06;48.80;;;14.80;;
8219;SDS011;4151;51.110;7.020;2023-12-14T07:04:32;54.20;;;17.47;;
8219;SDS011;4151;51.110;7.020;2023-12-14T07:06:58;50.30;;;15.83;;
8219;SDS011;4151;51.110;7.020;2023-12-14T07:09:24;39.90;;;16.67;;
8219;SDS011;4151;51.110;7.020;2023-12-14T07:11:51;43.10;;;15.30;;
8219;SDS011;4151;51.110;7.020;2023-12-14T07:14:17;47.17;;;17.87;;
8219;SDS011;4151;51.110;7.020;2023-12-14T07:16:44;56.23;;;18.47;;
8219;SDS011;4151;51.110;7.020;2023-12-14T07:19:10;38.00;;;16.43;;
8219;SDS011;4151;51.110;7.020;2023-12-14T07:21:36;43.27;;;15.60;;
8219;SDS011;4151;51.110;7.020;2023-12-14T07:24:03;47.13;;;16.77;;
8219;SDS011;4151;51.110;7.020;2023-12-14T07:26:29;47.80;;;16.10;;
8219;SDS011;4151;51.110;7.020;2023-12-14T07:28:55;45.87;;;15.37;;
8219;SDS011;4151;51.110;7.020;2023-12-14T07:31:21;46.90;;;16.73;;
8219;SDS011;4151;51.110;7.020;2023-12-14T07:33:46;47.53;;;16.83;;
8219;SDS011;4151;51.110;7.020;2023-12-14T07:36:12;44.23;;;16.27;;
8219;SDS011;4151;51.110;7.020;2023-12-14T07:38:38;49.43;;;15.93;;
8219;SDS011;4151;51.110;7.020;2023-12-14T07:41:04;49.83;;;18.77;;
8219;SDS011;4151;51.110;7.020;2023-12-14T07:43:30;50.17;;;17.33;;
8219;SDS011;4151;51.110;7.020;2023-12-14T07:45:57;53.60;;;20.10;;
8219;SDS011;4151;51.110;7.020;2023-12-14T07:48:23;46.93;;;17.67;;
8219;SDS011;4151;51.110;7.020;2023-12-14T07:50:49;39.90;;;14.13;;
8219;SDS011;4151;51.110;7.020;2023-12-14T07:53:16;49.53;;;15.77;;
8219;SDS011;4151;51.110;7.020;2023-12-14T07:55:42;50.13;;;15.77;;
8219;SDS011;4151;51.110;7.020;2023-12-14T07:58:08;40.40;;;15.40;;
8219;SDS011;4151;51.110;7.020;2023-12-14T08:00:34;53.63;;;16.77;;
8219;SDS011;4151;51.110;7.020;2023-12-14T08:03:00;42.90;;;15.10;;
8219;SDS011;4151;51.110;7.020;2023-12-14T08:05:26;44.70;;;14.27;;
8219;SDS011;4151;51.110;7.020;2023-12-14T08:07:52;48.60;;;17.67;;
8219;SDS011;4151;51.110;7.020;2023-12-14T08:10:18;43.07;;;13.20;;
8219;SDS011;4151;51.110;7.020;2023-12-14T08:12:44;47.73;;;14.47;;
8219;SDS011;4151;51.110;7.020;2023-12-14T08:15:12;50.87;;;14.97;;
8219;SDS011;4151;51.110;7.020;2023-12-14T08:17:38;36.90;;;13.40;;
8219;SDS011;4151;51.110;7.020;2023-12-14T08:20:04;61.40;;;20.60;;
8219;SDS011;4151;51.110;7.020;2023-12-14T08:22:33;41.27;;;14.17;;
8219;SDS011;4151;51.110;7.020;2023-12-14T08:24:59;45.77;;;14.73;;
8219;SDS011;4151;51.110;7.020;2023-12-14T08:27:25;43.70;;;14.93;;
8219;SDS011;4151;51.110;7.020;2023-12-14T08:29:51;55.70;;;16.43;;
8219;SDS011;4151;51.110;7.020;2023-12-14T08:32:17;51.83;;;15.10;;
8219;SDS011;4151;51.110;7.020;2023-12-14T08:34:43;46.40;;;14.40;;
8219;SDS011;4151;51.110;7.020;2023-12-14T08:37:10;44.63;;;14.17;;
8219;SDS011;4151;51.110;7.020;2023-12-14T08:39:35;38.77;;;14.60;;
8219;SDS011;4151;51.110;7.020;2023-12-14T08:42:01;56.03;;;16.97;;
8219;SDS011;4151;51.110;7.020;2023-12-14T08:44:27;53.80;;;17.17;;
8219;SDS011;4151;51.110;7.020;2023-12-14T08:46:53;70.50;;;20.43;;
8219;SDS011;4151;51.110;7.020;2023-12-14T08:49:19;67.30;;;17.87;;
8219;SDS011;4151;51.110;7.020;2023-12-14T08:51:46;73.50;;;21.33;;
8219;SDS011;4151;51.110;7.020;2023-12-14T08:54:12;73.37;;;22.30;;
8219;SDS011;4151;51.110;7.020;2023-12-14T08:56:38;69.80;;;19.80;;
8219;SDS011;4151;51.110;7.020;2023-12-14T08:59:04;64.90;;;19.47;;
8219;SDS011;4151;51.110;7.020;2023-12-14T09:01:30;58.37;;;17.50;;
8219;SDS011;4151;51.110;7.020;2023-12-14T09:03:56;61.63;;;19.10;;
8219;SDS011;4151;51.110;7.020;2023-12-14T09:06:22;54.47;;;16.93;;
8219;SDS011;4151;51.110;7.020;2023-12-14T09:08:48;57.00;;;18.07;;
8219;SDS011;4151;51.110;7.020;2023-12-14T09:11:14;70.50;;;18.17;;
8219;SDS011;4151;51.110;7.020;2023-12-14T09:13:41;59.73;;;19.57;;
8219;SDS011;4151;51.110;7.020;2023-12-14T09:16:07;75.73;;;20.07;;
8219;SDS011;4151;51.110;7.020;2023-12-14T09:18:33;68.83;;;19.70;;
8219;SDS011;4151;51.110;7.020;2023-12-14T09:20:59;70.20;;;19.87;;
8219;SDS011;4151;51.110;7.020;2023-12-14T09:23:25;69.13;;;20.90;;
8219;SDS011;4151;51.110;7.020;2023-12-14T09:25:51;65.80;;;17.70;;
8219;SDS011;4151;51.110;7.020;2023-12-14T09:28:17;53.83;;;18.87;;
8219;SDS011;4151;51.110;7.020;2023-12-14T09:30:43;54.47;;;17.77;;
8219;SDS011;4151;51.110;7.020;2023-12-14T09:33:09;57.10;;;18.10;;
8219;SDS011;4151;51.110;7.020;2023-12-14T09:35:35;57.83;;;16.80;;
8219;SDS011;4151;51.110;7.020;2023-12-14T09:38:02;80.53;;;21.20;;
8219;SDS011;4151;51.110;7.020;2023-12-14T09:40:28;71.43;;;20.47;;
8219;SDS011;4151;51.110;7.020;2023-12-14T09:42:54;74.57;;;20.03;;
8219;SDS011;4151;51.110;7.020;2023-12-14T09:45:22;58.20;;;17.37;;
8219;SDS011;4151;51.110;7.020;2023-12-14T09:47:49;60.67;;;18.63;;
8219;SDS011;4151;51.110;7.020;2023-12-14T09:50:15;64.10;;;19.83;;
8219;SDS011;4151;51.110;7.020;2023-12-14T09:52:41;59.00;;;19.10;;
8219;SDS011;4151;51.110;7.020;2023-12-14T09:55:13;69.23;;;20.63;;
8219;SDS011;4151;51.110;7.020;2023-12-14T09:57:39;61.87;;;19.73;;
8219;SDS011;4151;51.110;7.020;2023-12-14T10:00:05;62.23;;;19.43;;
8219;SDS011;4151;51.110;7.020;2023-12-14T10:02:36;60.63;;;18.90;;
8219;SDS011;4151;51.110;7.020;2023-12-14T10:05:02;86.57;;;19.40;;
8219;SDS011;4151;51.110;7.020;2023-12-14T10:07:29;64.67;;;19.40;;
8219;SDS011;4151;51.110;7.020;2023-12-14T10:09:58;52.60;;;18.93;;
8219;SDS011;4151;51.110;7.020;2023-12-14T10:12:39;55.77;;;18.60;;
8219;SDS011;4151;51.110;7.020;2023-12-14T10:15:15;53.40;;;18.83;;
8219;SDS011;4151;51.110;7.020;2023-12-14T10:17:41;60.67;;;18.80;;
8219;SDS011;4151;51.110;7.020;2023-12-14T10:20:07;48.67;;;17.60;;
8219;SDS011;4151;51.110;7.020;2023-12-14T10:22:34;62.17;;;20.43;;
8219;SDS011;4151;51.110;7.020;2023-12-14T10:25:02;57.33;;;19.03;;
8219;SDS011;4151;51.110;7.020;2023-12-14T10:27:29;55.50;;;19.57;;
8219;SDS011;4151;51.110;7.020;2023-12-14T10:29:56;57.97;;;21.03;;
8219;SDS011;4151;51.110;7.020;2023-12-14T10:32:22;52.07;;;17.63;;
8219;SDS011;4151;51.110;7.020;2023-12-14T10:34:48;53.83;;;17.93;;
8219;SDS011;4151;51.110;7.020;2023-12-14T10:37:14;56.17;;;17.67;;
8219;SDS011;4151;51.110;7.020;2023-12-14T10:39:41;62.50;;;19.03;;
8219;SDS011;4151;51.110;7.020;2023-12-14T10:42:08;58.00;;;20.67;;
8219;SDS011;4151;51.110;7.020;2023-12-14T10:44:35;55.00;;;18.40;;
8219;SDS011;4151;51.110;7.020;2023-12-14T10:47:01;57.93;;;19.93;;
8219;SDS011;4151;51.110;7.020;2023-12-14T10:49:29;69.20;;;19.63;;
8219;SDS011;4151;51.110;7.020;2023-12-14T10:51:56;63.17;;;19.53;;
8219;SDS011;4151;51.110;7.020;2023-12-14T10:54:23;54.87;;;18.87;;
8219;SDS011;4151;51.110;7.020;2023-12-14T10:56:49;63.73;;;19.77;;
8219;SDS011;4151;51.110;7.020;2023-12-14T10:59:15;62.33;;;19.03;;
8219;SDS011;4151;51.110;7.020;2023-12-14T11:01:42;49.53;;;16.10;;
8219;SDS011;4151;51.110;7.020;2023-12-14T11:04:08;59.60;;;18.90;;
8219;SDS011;4151;51.110;7.020;2023-12-14T11:06:38;64.17;;;17.20;;
8219;SDS011;4151;51.110;7.020;2023-12-14T11:09:05;57.07;;;19.37;;
8219;SDS011;4151;51.110;7.020;2023-12-14T11:11:42;55.80;;;20.10;;
8219;SDS011;4151;51.110;7.020;2023-12-14T11:14:10;58.63;;;18.63;;
8219;SDS011;4151;51.110;7.020;2023-12-14T11:16:38;51.73;;;19.40;;
8219;SDS011;4151;51.110;7.020;2023-12-14T11:24:22;59.60;;;20.20;;
8219;SDS011;4151;51.110;7.020;2023-12-14T11:26:51;55.10;;;19.23;;
8219;SDS011;4151;51.110;7.020;2023-12-14T11:29:17;49.63;;;17.70;;
8219;SDS011;4151;51.110;7.020;2023-12-14T11:31:44;48.47;;;17.07;;
8219;SDS011;4151;51.110;7.020;2023-12-14T11:34:11;53.23;;;18.30;;
8219;SDS011;4151;51.110;7.020;2023-12-14T11:36:37;57.10;;;18.80;;
8219;SDS011;4151;51.110;7.020;2023-12-14T11:39:07;49.33;;;19.37;;
8219;SDS011;4151;51.110;7.020;2023-12-14T11:41:34;43.20;;;16.80;;
8219;SDS011;4151;51.110;7.020;2023-12-14T11:44:01;56.60;;;20.60;;
8219;SDS011;4151;51.110;7.020;2023-12-14T11:46:28;46.87;;;17.53;;
8219;SDS011;4151;51.110;7.020;2023-12-14T11:48:56;46.77;;;16.93;;
8219;SDS011;4151;51.110;7.020;2023-12-14T11:51:22;53.23;;;18.80;;
8219;SDS011;4151;51.110;7.020;2023-12-14T11:53:50;45.23;;;17.17;;
8219;SDS011;4151;51.110;7.020;2023-12-14T11:56:17;49.53;;;16.83;;
8219;SDS011;4151;51.110;7.020;2023-12-14T11:58:43;45.80;;;15.33;;
8219;SDS011;4151;51.110;7.020;2023-12-14T12:01:13;43.53;;;16.60;;
8219;SDS011;4151;51.110;7.020;2023-12-14T12:03:39;42.77;;;15.50;;
8219;SDS011;4151;51.110;7.020;2023-12-14T12:06:05;41.30;;;16.97;;
8219;SDS011;4151;51.110;7.020;2023-12-14T12:08:31;46.10;;;16.90;;
8219;SDS011;4151;51.110;7.020;2023-12-14T12:11:06;41.87;;;15.97;;
8219;SDS011;4151;51.110;7.020;2023-12-14T12:13:34;40.20;;;16.70;;
8219;SDS011;4151;51.110;7.020;2023-12-14T12:16:00;42.50;;;15.77;;
8219;SDS011;4151;51.110;7.020;2023-12-14T12:18:26;42.90;;;15.40;;
8219;SDS011;4151;51.110;7.020;2023-12-14T12:20:52;46.07;;;15.17;;
8219;SDS011;4151;51.110;7.020;2023-12-14T12:23:18;42.83;;;14.50;;
8219;SDS011;4151;51.110;7.020;2023-12-14T12:25:44;38.83;;;15.30;;
8219;SDS011;4151;51.110;7.020;2023-12-14T12:28:10;45.40;;;15.20;;
8219;SDS011;4151;51.110;7.020;2023-12-14T12:30:36;45.50;;;14.23;;
8219;SDS011;4151;51.110;7.020;2023-12-14T12:33:02;49.83;;;16.20;;
8219;SDS011;4151;51.110;7.020;2023-12-14T12:35:28;44.27;;;16.43;;
8219;SDS011;4151;51.110;7.020;2023-12-14T12:37:55;43.17;;;15.90;;
8219;SDS011;4151;51.110;7.020;2023-12-14T12:40:22;36.10;;;13.40;;
8219;SDS011;4151;51.110;7.020;2023-12-14T12:42:48;44.33;;;14.17;;
8219;SDS011;4151;51.110;7.020;2023-12-14T12:45:15;36.23;;;13.17;;
8219;SDS011;4151;51.110;7.020;2023-12-14T12:47:47;48.87;;;13.63;;
8219;SDS011;4151;51.110;7.020;2023-12-14T12:50:13;33.50;;;13.70;;
8219;SDS011;4151;51.110;7.020;2023-12-14T12:52:39;32.13;;;12.67;;
8219;SDS011;4151;51.110;7.020;2023-12-14T12:55:07;46.03;;;16.10;;
8219;SDS011;4151;51.110;7.020;2023-12-14T12:57:34;40.77;;;14.47;;
8219;SDS011;4151;51.110;7.020;2023-12-14T13:00:00;36.00;;;13.93;;
8219;SDS011;4151;51.110;7.020;2023-12-14T13:02:26;39.50;;;15.10;;
8219;SDS011;4151;51.110;7.020;2023-12-14T13:04:52;41.63;;;14.10;;
8219;SDS011;4151;51.110;7.020;2023-12-14T13:07:18;35.13;;;14.27;;
8219;SDS011;4151;51.110;7.020;2023-12-14T13:09:44;43.23;;;13.83;;
8219;SDS011;4151;51.110;7.020;2023-12-14T13:12:10;40.80;;;15.27;;
8219;SDS011;4151;51.110;7.020;2023-12-14T13:14:36;43.20;;;16.43;;
8219;SDS011;4151;51.110;7.020;2023-12-14T13:17:02;37.33;;;13.23;;
8219;SDS011;4151;51.110;7.020;2023-12-14T13:19:28;34.67;;;12.03;;
8219;SDS011;4151;51.110;7.020;2023-12-14T13:21:54;41.23;;;15.27;;
8219;SDS011;4151;51.110;7.020;2023-12-14T13:24:23;35.73;;;13.70;;
8219;SDS011;4151;51.110;7.020;2023-12-14T13:26:49;32.30;;;12.77;;
8219;SDS011;4151;51.110;7.020;2023-12-14T13:29:15;35.20;;;13.83;;
8219;SDS011;4151;51.110;7.020;2023-12-14T13:31:41;33.73;;;13.73;;
8219;SDS011;4151;51.110;7.020;2023-12-14T13:34:07;27.20;;;11.90;;
8219;SDS011;4151;51.110;7.020;2023-12-14T13:36:33;28.80;;;10.47;;
8219;SDS011;4151;51.110;7.020;2023-12-14T13:38:59;31.50;;;12.10;;
8219;SDS011;4151;51.110;7.020;2023-12-14T13:41:27;21.97;;;9.90;;
8219;SDS011;4151;51.110;7.020;2023-12-14T13:43:53;22.60;;;10.10;;
8219;SDS011;4151;51.110;7.020;2023-12-14T13:46:19;18.87;;;8.87;;
8219;SDS011;4151;51.110;7.020;2023-12-14T13:48:45;24.03;;;9.70;;
8219;SDS011;4151;51.110;7.020;2023-12-14T13:51:11;22.83;;;10.03;;
8219;SDS011;4151;51.110;7.020;2023-12-14T13:53:37;23.27;;;9.40;;
8219;SDS011;4151;51.110;7.020;2023-12-14T13:56:04;30.00;;;9.33;;
8219;SDS011;4151;51.110;7.020;2023-12-14T13:58:30;17.40;;;8.00;;
8219;SDS011;4151;51.110;7.020;2023-12-14T14:00:59;21.37;;;8.27;;
8219;SDS011;4151;51.110;7.020;2023-12-14T14:03:25;17.23;;;7.13;;
8219;SDS011;4151;51.110;7.020;2023-12-14T14:05:52;15.83;;;6.27;;
8219;SDS011;4151;51.110;7.020;2023-12-14T14:08:18;16.43;;;7.70;;
8219;SDS011;4151;51.110;7.020;2023-12-14T14:10:45;14.93;;;6.80;;
8219;SDS011;4151;51.110;7.020;2023-12-14T14:13:11;12.40;;;6.00;;
8219;SDS011;4151;51.110;7.020;2023-12-14T14:15:37;19.03;;;6.70;;
8219;SDS011;4151;51.110;7.020;2023-12-14T14:18:03;21.53;;;6.93;;
8219;SDS011;4151;51.110;7.020;2023-12-14T14:20:29;15.03;;;5.90;;
8219;SDS011;4151;51.110;7.020;2023-12-14T14:22:55;19.93;;;6.93;;
8219;SDS011;4151;51.110;7.020;2023-12-14T14:25:24;13.23;;;5.70;;
8219;SDS011;4151;51.110;7.020;2023-12-14T14:27:50;14.40;;;6.40;;
8219;SDS011;4151;51.110;7.020;2023-12-14T14:30:16;13.60;;;4.83;;
8219;SDS011;4151;51.110;7.020;2023-12-14T14:32:42;11.50;;;4.97;;
8219;SDS011;4151;51.110;7.020;2023-12-14T14:35:08;13.03;;;6.47;;
8219;SDS011;4151;51.110;7.020;2023-12-14T14:37:34;8.57;;;4.90;;
8219;SDS011;4151;51.110;7.020;2023-12-14T14:40:00;12.57;;;4.60;;
8219;SDS011;4151;51.110;7.020;2023-12-14T14:42:26;14.00;;;5.30;;
8219;SDS011;4151;51.110;7.020;2023-12-14T14:44:52;11.77;;;4.80;;
8219;SDS011;4151;51.110;7.020;2023-12-14T14:47:18;15.07;;;5.53;;
8219;SDS011;4151;51.110;7.020;2023-12-14T14:49:44;13.20;;;6.50;;